createdAt,value
2019-05-15T00:03:50.201Z,4.07
2019-05-15T00:08:44.160Z,3.67
2019-05-15T00:13:38.852Z,3.17
2019-05-15T00:18:33.205Z,3.50
2019-05-15T00:23:29.193Z,2.90
2019-05-15T00:28:23.097Z,3.60
2019-05-15T00:33:19.169Z,3.00
2019-05-15T00:38:12.926Z,3.37
2019-05-15T00:43:08.797Z,3.33
2019-05-15T00:48:02.977Z,3.23
2019-05-15T00:52:58.964Z,3.40
2019-05-15T00:57:52.914Z,3.20
2019-05-15T01:02:48.697Z,3.10
2019-05-15T01:07:42.749Z,3.33
2019-05-15T01:12:38.015Z,3.40
2019-05-15T01:17:32.075Z,3.27
2019-05-15T01:22:28.505Z,3.40
2019-05-15T01:27:22.028Z,2.97
2019-05-15T01:32:15.960Z,3.20
2019-05-15T01:37:09.927Z,3.10
2019-05-15T01:42:03.881Z,3.17
2019-05-15T01:46:59.010Z,3.20
2019-05-15T01:51:53.216Z,2.93
2019-05-15T01:56:49.668Z,2.77
2019-05-15T02:01:43.744Z,3.07
2019-05-15T02:06:39.094Z,3.27
2019-05-15T02:11:33.280Z,2.93
2019-05-15T02:16:28.665Z,3.10
2019-05-15T02:21:22.878Z,3.03
2019-05-15T02:26:18.933Z,3.03
2019-05-15T02:31:12.773Z,3.43
2019-05-15T02:36:09.711Z,3.10
2019-05-15T02:41:02.750Z,3.20
2019-05-15T02:46:00.078Z,3.20
2019-05-15T02:50:52.690Z,3.13
2019-05-15T02:55:49.451Z,3.17
2019-05-15T03:00:52.292Z,3.07
2019-05-15T03:05:42.616Z,3.30
2019-05-15T03:10:39.973Z,3.50
2019-05-15T03:15:33.128Z,3.30
2019-05-15T03:20:29.825Z,3.37
2019-05-15T03:25:23.084Z,3.67
2019-05-15T03:30:21.728Z,3.40
2019-05-15T03:35:15.873Z,3.03
2019-05-15T03:40:11.082Z,3.07
2019-05-15T03:45:05.128Z,3.10
2019-05-15T03:50:02.952Z,3.00
2019-05-15T03:54:58.805Z,3.27
2019-05-15T03:59:52.800Z,3.10
2019-05-15T04:04:49.989Z,3.10
2019-05-15T04:09:42.830Z,3.50
2019-05-15T04:14:39.440Z,3.33
2019-05-15T04:19:32.988Z,3.50
2019-05-15T04:24:30.089Z,3.23
2019-05-15T04:29:28.747Z,3.17
2019-05-15T04:34:23.742Z,3.60
2019-05-15T04:39:19.317Z,3.30
2019-05-15T04:44:13.567Z,3.43
2019-05-15T04:49:09.271Z,3.37
2019-05-15T04:54:03.499Z,3.97
2019-05-15T04:58:59.980Z,3.13
2019-05-15T05:03:53.366Z,3.13
2019-05-15T05:08:49.077Z,3.20
2019-05-15T05:13:43.319Z,2.83
2019-05-15T05:18:41.215Z,3.30
2019-05-15T05:23:33.235Z,3.63
2019-05-15T05:28:29.014Z,3.20
2019-05-15T05:33:23.460Z,2.90
2019-05-15T05:38:19.135Z,2.53
2019-05-15T05:43:13.488Z,3.40
2019-05-15T05:48:08.803Z,2.77
2019-05-15T05:53:04.821Z,3.10
2019-05-15T05:57:58.781Z,2.83
2019-05-15T06:02:52.932Z,3.40
2019-05-15T06:07:48.771Z,3.00
2019-05-15T06:12:42.813Z,2.60
2019-05-15T06:17:39.316Z,2.10
2019-05-15T06:22:32.672Z,2.20
2019-05-15T06:27:27.992Z,1.70
2019-05-15T06:32:22.125Z,1.60
2019-05-15T06:37:16.088Z,1.80
2019-05-15T06:42:10.072Z,1.50
2019-05-15T06:47:04.178Z,1.43
2019-05-15T06:51:58.291Z,1.93
2019-05-15T06:56:52.370Z,1.70
2019-05-15T07:01:48.093Z,1.30
2019-05-15T07:06:42.258Z,1.27
2019-05-15T07:11:38.637Z,1.20
2019-05-15T07:16:32.366Z,1.37
2019-05-15T07:21:28.516Z,1.30
2019-05-15T07:26:22.427Z,1.30
2019-05-15T07:31:18.061Z,1.40
2019-05-15T07:36:12.389Z,1.50
2019-05-15T07:41:09.745Z,1.50
2019-05-15T07:46:02.516Z,1.40
2019-05-15T07:50:56.492Z,1.57
2019-05-15T07:55:52.375Z,1.50
2019-05-15T08:00:49.075Z,1.30
2019-05-15T08:05:54.947Z,1.27
2019-05-15T08:10:39.692Z,1.50
2019-05-15T08:15:33.790Z,1.67
2019-05-15T08:20:28.909Z,1.70
2019-05-15T08:25:32.404Z,1.42
2019-05-15T08:30:19.311Z,1.20
2019-05-15T08:35:13.879Z,3.27
2019-05-15T08:40:08.723Z,1.60
2019-05-15T08:45:06.126Z,1.37
2019-05-15T08:50:00.206Z,1.52
2019-05-15T08:54:54.281Z,1.93
2019-05-15T08:59:48.845Z,2.13
2019-05-15T09:04:42.954Z,1.80
2019-05-15T09:09:38.322Z,2.00
2019-05-15T09:14:32.472Z,1.67
2019-05-15T09:19:28.054Z,1.90
2019-05-15T09:24:28.780Z,1.90
2019-05-15T09:29:23.100Z,1.80
2019-05-15T09:34:18.521Z,1.60
2019-05-15T09:39:13.569Z,1.80
2019-05-15T09:44:08.063Z,1.75
2019-05-15T09:49:02.270Z,1.72
2019-05-15T09:53:59.419Z,2.00
2019-05-15T09:58:52.293Z,1.50
2019-05-15T10:03:48.479Z,1.60
2019-05-15T10:08:42.148Z,1.60
2019-05-15T10:13:38.336Z,1.77
2019-05-15T10:18:32.153Z,1.70
2019-05-15T10:23:28.869Z,1.92
2019-05-15T10:28:22.114Z,1.70
2019-05-15T10:33:19.254Z,2.00
2019-05-15T10:38:12.264Z,2.15
2019-05-15T10:43:09.163Z,1.87
2019-05-15T10:48:04.297Z,2.02
2019-05-15T10:53:01.083Z,1.98
2019-05-15T10:57:55.129Z,1.90
2019-05-15T11:02:51.047Z,1.72
2019-05-15T11:07:45.141Z,2.00
2019-05-15T11:12:39.324Z,2.05
2019-05-15T11:17:33.490Z,1.90
2019-05-15T11:22:29.849Z,1.70
2019-05-15T11:27:23.448Z,1.90
2019-05-15T11:32:19.985Z,1.90
2019-05-15T11:37:14.207Z,1.50
2019-05-15T11:42:08.868Z,1.80
2019-05-15T11:47:06.111Z,1.62
2019-05-15T11:52:00.798Z,1.82
2019-05-15T11:56:54.870Z,1.80
2019-05-15T12:01:49.075Z,1.50
2019-05-15T12:06:57.974Z,1.55
2019-05-15T12:11:41.113Z,1.40
2019-05-15T12:16:36.359Z,1.60
2019-05-15T12:21:30.983Z,1.30
2019-05-15T12:26:24.956Z,1.52
2019-05-15T12:31:24.362Z,1.55
2019-05-15T12:36:40.977Z,1.50
2019-05-15T13:00:57.888Z,1.82
2019-05-15T13:05:52.181Z,1.52
2019-05-15T13:10:48.635Z,1.30
2019-05-15T13:15:45.363Z,1.52
2019-05-15T13:20:41.361Z,1.50
2019-05-15T13:25:35.487Z,1.50
2019-05-15T13:30:30.183Z,1.70
2019-05-15T13:35:24.270Z,1.50
2019-05-15T13:40:18.844Z,1.50
2019-05-15T13:45:13.689Z,1.60
2019-05-15T13:50:08.858Z,1.50
2019-05-15T13:55:04.561Z,1.67
2019-05-15T14:00:01.902Z,1.57
2019-05-15T14:04:58.148Z,1.40
2019-05-15T14:09:51.840Z,2.22
2019-05-15T14:14:45.850Z,5.65
2019-05-15T14:19:39.865Z,2.35
2019-05-15T14:24:33.874Z,1.70
2019-05-15T14:29:30.431Z,1.50
2019-05-15T14:34:24.383Z,1.50
2019-05-15T14:39:21.064Z,2.00
2019-05-15T14:44:18.651Z,1.37
2019-05-15T14:49:11.131Z,1.30
2019-05-15T14:54:05.109Z,1.52
2019-05-15T14:58:59.189Z,1.60
2019-05-15T15:03:53.166Z,1.37
2019-05-15T15:08:48.736Z,1.95
2019-05-15T15:13:43.078Z,1.50
2019-05-15T15:18:38.593Z,1.32
2019-05-15T15:23:32.925Z,1.37
2019-05-15T15:28:29.547Z,1.30
2019-05-15T15:33:23.539Z,1.37
2019-05-15T15:38:33.254Z,1.47
2019-05-15T15:43:15.321Z,1.30
2019-05-15T15:48:09.323Z,1.30
2019-05-15T15:53:03.489Z,1.32
2019-05-15T15:57:59.228Z,1.50
2019-05-15T16:02:53.506Z,1.40
2019-05-15T16:07:48.542Z,1.35
2019-05-15T16:12:42.813Z,1.50
2019-05-15T16:17:38.438Z,1.62
2019-05-15T16:22:32.939Z,1.55
2019-05-15T16:27:28.705Z,1.32
2019-05-15T16:32:22.836Z,1.42
2019-05-15T16:37:18.774Z,1.30
2019-05-15T16:42:12.821Z,1.70
2019-05-15T16:47:08.480Z,1.60
2019-05-15T16:52:02.734Z,1.60
2019-05-15T16:56:58.829Z,1.60
2019-05-15T17:01:52.850Z,1.67
2019-05-15T17:06:49.172Z,1.60
2019-05-15T17:11:42.811Z,1.60
2019-05-15T17:16:38.703Z,1.60
2019-05-15T17:21:33.120Z,1.70
2019-05-15T17:26:28.806Z,1.57
2019-05-15T17:31:23.005Z,1.80
2019-05-15T17:36:18.561Z,1.72
2019-05-15T17:41:12.888Z,1.72
2019-05-15T17:46:08.854Z,1.60
2019-05-15T17:51:06.027Z,1.60
2019-05-15T17:56:01.299Z,1.90
2019-05-15T18:00:55.476Z,1.50
2019-05-15T18:05:49.669Z,1.77
2019-05-15T18:10:44.198Z,1.85
2019-05-15T18:15:38.817Z,1.80
2019-05-15T18:20:32.961Z,1.80
2019-05-15T18:25:27.016Z,1.70
2019-05-15T18:30:23.224Z,1.80
2019-05-15T18:35:18.782Z,1.62
2019-05-15T18:40:15.901Z,1.50
2019-05-15T18:45:09.952Z,1.47
2019-05-15T18:50:08.750Z,1.60
2019-05-15T18:55:01.458Z,1.62
2019-05-15T18:59:57.896Z,1.65
2019-05-15T19:04:51.673Z,1.67
2019-05-15T19:09:47.893Z,1.80
2019-05-15T19:14:41.719Z,1.80
2019-05-15T19:19:35.811Z,1.60
2019-05-15T19:24:29.810Z,1.90
2019-05-15T19:29:23.854Z,1.98
2019-05-15T19:34:19.004Z,1.90
2019-05-15T19:39:13.095Z,2.17
2019-05-15T19:44:08.746Z,2.10
2019-05-15T19:49:03.207Z,2.05
2019-05-15T19:53:58.647Z,2.37
2019-05-15T19:58:52.916Z,2.30
2019-05-15T20:03:50.676Z,2.40
2019-05-15T20:08:43.509Z,2.30
2019-05-15T20:13:38.394Z,2.77
2019-05-15T20:18:32.658Z,3.10
2019-05-15T20:23:28.731Z,2.80
2019-05-15T20:28:22.728Z,3.10
2019-05-15T20:33:17.986Z,3.00
2019-05-15T20:38:12.240Z,2.70
2019-05-15T20:43:08.212Z,2.47
2019-05-15T20:48:02.239Z,2.27
2019-05-15T20:52:58.761Z,2.83
2019-05-15T20:57:52.292Z,2.37
2019-05-15T21:02:48.508Z,2.27
2019-05-15T21:07:43.439Z,2.77
2019-05-15T21:12:40.525Z,2.20
2019-05-15T21:17:33.459Z,2.00
2019-05-15T21:22:28.436Z,2.40
2019-05-15T21:27:24.327Z,2.90
2019-05-15T21:32:19.642Z,2.77
2019-05-15T21:37:13.931Z,3.07
2019-05-15T21:42:09.169Z,3.17
2019-05-15T21:47:03.401Z,2.90
2019-05-15T21:51:59.271Z,2.80
2019-05-15T21:57:06.791Z,3.07
2019-05-15T22:01:49.358Z,2.53
2019-05-15T22:06:43.318Z,2.13
2019-05-15T22:11:39.547Z,2.60
2019-05-15T22:16:33.256Z,2.33
2019-05-15T22:21:27.267Z,2.60
2019-05-15T22:26:21.688Z,2.10
2019-05-15T22:31:15.964Z,2.30
2019-05-15T22:36:12.373Z,2.42
2019-05-15T22:41:10.147Z,2.03
2019-05-15T22:46:02.743Z,2.10
2019-05-15T22:50:58.322Z,2.30
2019-05-15T22:55:52.573Z,2.45
2019-05-15T23:00:48.956Z,2.17
2019-05-15T23:05:42.568Z,2.00
2019-05-15T23:10:38.433Z,2.50
2019-05-15T23:15:32.486Z,2.47
2019-05-15T23:20:28.632Z,2.60
2019-05-15T23:25:22.324Z,2.20
2019-05-15T23:30:18.701Z,2.27
2019-05-15T23:35:13.306Z,2.30
2019-05-15T23:40:08.853Z,2.07
2019-05-15T23:45:04.933Z,2.30
2019-05-15T23:50:00.928Z,2.40
2019-05-15T23:54:54.888Z,2.43
2019-05-15T23:59:50.182Z,2.50
